sensor_id;sensor_type;location;lat;lon;timestamp;P1;durP1;ratioP1;P2;durP2;ratioP2
75689;SDS011;64303;53.118;9.044;2023-06-14T00:02:17;5.15;;;2.85;;
75689;SDS011;64303;53.118;9.044;2023-06-14T00:04:44;7.10;;;3.17;;
75689;SDS011;64303;53.118;9.044;2023-06-14T00:07:10;3.95;;;2.38;;
75689;SDS011;64303;53.118;9.044;2023-06-14T00:09:39;6.00;;;3.38;;
75689;SDS011;64303;53.118;9.044;2023-06-14T00:12:07;3.33;;;1.92;;
75689;SDS011;64303;53.118;9.044;2023-06-14T00:14:35;7.03;;;3.65;;
75689;SDS011;64303;53.118;9.044;2023-06-14T00:17:01;5.10;;;4.30;;
75689;SDS011;64303;53.118;9.044;2023-06-14T00:19:28;4.93;;;3.47;;
75689;SDS011;64303;53.118;9.044;2023-06-14T00:21:58;4.85;;;4.40;;
75689;SDS011;64303;53.118;9.044;2023-06-14T00:24:24;4.97;;;2.97;;
75689;SDS011;64303;53.118;9.044;2023-06-14T00:26:51;4.10;;;3.67;;
75689;SDS011;64303;53.118;9.044;2023-06-14T00:29:19;4.55;;;2.95;;
75689;SDS011;64303;53.118;9.044;2023-06-14T00:34:12;4.30;;;3.70;;
75689;SDS011;64303;53.118;9.044;2023-06-14T00:36:40;4.68;;;3.63;;
75689;SDS011;64303;53.118;9.044;2023-06-14T00:39:07;4.28;;;3.55;;
75689;SDS011;64303;53.118;9.044;2023-06-14T00:44:01;5.07;;;3.00;;
75689;SDS011;64303;53.118;9.044;2023-06-14T00:46:29;6.15;;;2.45;;
75689;SDS011;64303;53.118;9.044;2023-06-14T00:48:56;4.22;;;2.72;;
75689;SDS011;64303;53.118;9.044;2023-06-14T00:51:25;4.57;;;2.22;;
75689;SDS011;64303;53.118;9.044;2023-06-14T00:53:53;4.55;;;4.10;;
75689;SDS011;64303;53.118;9.044;2023-06-14T00:56:19;6.82;;;2.97;;
75689;SDS011;64303;53.118;9.044;2023-06-14T00:58:49;8.00;;;3.13;;
75689;SDS011;64303;53.118;9.044;2023-06-14T01:01:16;6.30;;;3.45;;
75689;SDS011;64303;53.118;9.044;2023-06-14T01:03:45;4.82;;;3.25;;
75689;SDS011;64303;53.118;9.044;2023-06-14T01:06:15;5.50;;;2.72;;
75689;SDS011;64303;53.118;9.044;2023-06-14T01:11:24;6.15;;;2.10;;
75689;SDS011;64303;53.118;9.044;2023-06-14T01:13:54;3.90;;;2.40;;
75689;SDS011;64303;53.118;9.044;2023-06-14T01:16:22;6.88;;;3.15;;
75689;SDS011;64303;53.118;9.044;2023-06-14T01:18:50;6.15;;;3.33;;
75689;SDS011;64303;53.118;9.044;2023-06-14T01:21:21;4.32;;;2.42;;
75689;SDS011;64303;53.118;9.044;2023-06-14T01:23:50;3.83;;;2.67;;
75689;SDS011;64303;53.118;9.044;2023-06-14T01:26:18;6.05;;;4.10;;
75689;SDS011;64303;53.118;9.044;2023-06-14T01:28:46;6.82;;;2.97;;
75689;SDS011;64303;53.118;9.044;2023-06-14T01:31:16;5.00;;;3.35;;
75689;SDS011;64303;53.118;9.044;2023-06-14T01:33:43;6.18;;;4.05;;
75689;SDS011;64303;53.118;9.044;2023-06-14T01:36:10;4.88;;;3.30;;
75689;SDS011;64303;53.118;9.044;2023-06-14T01:38:38;4.60;;;2.95;;
75689;SDS011;64303;53.118;9.044;2023-06-14T01:41:06;6.75;;;3.88;;
75689;SDS011;64303;53.118;9.044;2023-06-14T01:43:33;4.63;;;2.05;;
75689;SDS011;64303;53.118;9.044;2023-06-14T01:46:00;8.25;;;2.97;;
75689;SDS011;64303;53.118;9.044;2023-06-14T01:48:27;5.85;;;4.50;;
75689;SDS011;64303;53.118;9.044;2023-06-14T01:50:53;5.50;;;4.68;;
75689;SDS011;64303;53.118;9.044;2023-06-14T01:53:20;5.43;;;3.08;;
75689;SDS011;64303;53.118;9.044;2023-06-14T01:55:47;5.80;;;3.45;;
75689;SDS011;64303;53.118;9.044;2023-06-14T01:58:15;7.10;;;2.95;;
75689;SDS011;64303;53.118;9.044;2023-06-14T02:00:42;6.15;;;3.35;;
75689;SDS011;64303;53.118;9.044;2023-06-14T02:03:10;4.70;;;4.25;;
75689;SDS011;64303;53.118;9.044;2023-06-14T02:05:38;5.28;;;3.22;;
75689;SDS011;64303;53.118;9.044;2023-06-14T02:08:05;7.40;;;3.72;;
75689;SDS011;64303;53.118;9.044;2023-06-14T02:10:32;5.10;;;3.63;;
75689;SDS011;64303;53.118;9.044;2023-06-14T02:12:59;7.20;;;3.95;;
75689;SDS011;64303;53.118;9.044;2023-06-14T02:15:27;7.10;;;3.28;;
75689;SDS011;64303;53.118;9.044;2023-06-14T02:20:27;4.97;;;3.05;;
75689;SDS011;64303;53.118;9.044;2023-06-14T02:22:56;5.00;;;4.30;;
75689;SDS011;64303;53.118;9.044;2023-06-14T02:25:23;5.97;;;4.15;;
75689;SDS011;64303;53.118;9.044;2023-06-14T02:27:50;4.93;;;3.83;;
75689;SDS011;64303;53.118;9.044;2023-06-14T02:30:16;18.08;;;3.72;;
75689;SDS011;64303;53.118;9.044;2023-06-14T02:32:45;8.60;;;4.70;;
75689;SDS011;64303;53.118;9.044;2023-06-14T02:35:13;5.50;;;2.85;;
75689;SDS011;64303;53.118;9.044;2023-06-14T02:37:40;6.32;;;3.40;;
75689;SDS011;64303;53.118;9.044;2023-06-14T02:40:08;5.45;;;3.65;;
75689;SDS011;64303;53.118;9.044;2023-06-14T02:42:35;6.45;;;3.83;;
75689;SDS011;64303;53.118;9.044;2023-06-14T02:45:03;6.97;;;5.85;;
75689;SDS011;64303;53.118;9.044;2023-06-14T02:47:31;4.82;;;3.03;;
75689;SDS011;64303;53.118;9.044;2023-06-14T02:49:59;6.45;;;3.40;;
75689;SDS011;64303;53.118;9.044;2023-06-14T02:52:25;4.70;;;3.88;;
75689;SDS011;64303;53.118;9.044;2023-06-14T02:54:52;6.38;;;3.72;;
75689;SDS011;64303;53.118;9.044;2023-06-14T02:57:19;6.95;;;3.92;;
75689;SDS011;64303;53.118;9.044;2023-06-14T02:59:46;5.10;;;3.35;;
75689;SDS011;64303;53.118;9.044;2023-06-14T03:02:13;8.27;;;4.03;;
75689;SDS011;64303;53.118;9.044;2023-06-14T03:04:41;7.47;;;4.53;;
75689;SDS011;64303;53.118;9.044;2023-06-14T03:07:14;5.95;;;3.83;;
75689;SDS011;64303;53.118;9.044;2023-06-14T03:09:45;6.43;;;3.85;;
75689;SDS011;64303;53.118;9.044;2023-06-14T03:12:12;7.55;;;3.20;;
75689;SDS011;64303;53.118;9.044;2023-06-14T03:14:39;5.95;;;4.20;;
75689;SDS011;64303;53.118;9.044;2023-06-14T03:17:08;6.75;;;4.53;;
75689;SDS011;64303;53.118;9.044;2023-06-14T03:19:35;6.95;;;3.17;;
75689;SDS011;64303;53.118;9.044;2023-06-14T03:24:33;5.63;;;4.13;;
75689;SDS011;64303;53.118;9.044;2023-06-14T03:27:03;6.43;;;4.32;;
75689;SDS011;64303;53.118;9.044;2023-06-14T03:29:30;7.72;;;4.57;;
75689;SDS011;64303;53.118;9.044;2023-06-14T03:31:58;8.32;;;5.00;;
75689;SDS011;64303;53.118;9.044;2023-06-14T03:34:33;4.95;;;3.70;;
75689;SDS011;64303;53.118;9.044;2023-06-14T03:37:00;6.82;;;4.50;;
75689;SDS011;64303;53.118;9.044;2023-06-14T03:39:28;8.65;;;4.55;;
75689;SDS011;64303;53.118;9.044;2023-06-14T03:41:56;9.50;;;3.85;;
75689;SDS011;64303;53.118;9.044;2023-06-14T03:44:23;6.55;;;3.63;;
75689;SDS011;64303;53.118;9.044;2023-06-14T03:46:51;5.00;;;3.97;;
75689;SDS011;64303;53.118;9.044;2023-06-14T03:49:18;6.40;;;5.13;;
75689;SDS011;64303;53.118;9.044;2023-06-14T03:51:45;7.18;;;4.93;;
75689;SDS011;64303;53.118;9.044;2023-06-14T03:54:18;7.60;;;5.45;;
75689;SDS011;64303;53.118;9.044;2023-06-14T03:56:46;10.63;;;4.85;;
75689;SDS011;64303;53.118;9.044;2023-06-14T03:59:14;5.18;;;4.13;;
75689;SDS011;64303;53.118;9.044;2023-06-14T04:01:41;6.90;;;4.07;;
75689;SDS011;64303;53.118;9.044;2023-06-14T04:04:10;6.32;;;4.63;;
75689;SDS011;64303;53.118;9.044;2023-06-14T04:06:37;6.35;;;5.72;;
75689;SDS011;64303;53.118;9.044;2023-06-14T04:09:06;5.20;;;3.92;;
75689;SDS011;64303;53.118;9.044;2023-06-14T04:11:34;6.38;;;5.07;;
75689;SDS011;64303;53.118;9.044;2023-06-14T04:14:02;6.00;;;4.30;;
75689;SDS011;64303;53.118;9.044;2023-06-14T04:16:30;4.72;;;3.80;;
75689;SDS011;64303;53.118;9.044;2023-06-14T04:18:58;5.07;;;3.28;;
75689;SDS011;64303;53.118;9.044;2023-06-14T04:21:25;6.43;;;3.63;;
75689;SDS011;64303;53.118;9.044;2023-06-14T04:23:54;5.90;;;4.40;;
75689;SDS011;64303;53.118;9.044;2023-06-14T04:26:24;5.55;;;4.35;;
75689;SDS011;64303;53.118;9.044;2023-06-14T04:28:55;6.25;;;4.00;;
75689;SDS011;64303;53.118;9.044;2023-06-14T04:31:28;6.07;;;4.03;;
75689;SDS011;64303;53.118;9.044;2023-06-14T04:34:00;4.90;;;4.18;;
75689;SDS011;64303;53.118;9.044;2023-06-14T04:36:31;7.85;;;4.18;;
75689;SDS011;64303;53.118;9.044;2023-06-14T04:39:00;5.40;;;4.28;;
75689;SDS011;64303;53.118;9.044;2023-06-14T04:41:29;5.63;;;3.40;;
75689;SDS011;64303;53.118;9.044;2023-06-14T04:43:57;4.85;;;4.22;;
75689;SDS011;64303;53.118;9.044;2023-06-14T04:46:28;5.35;;;2.95;;
75689;SDS011;64303;53.118;9.044;2023-06-14T04:48:57;7.10;;;5.82;;
75689;SDS011;64303;53.118;9.044;2023-06-14T04:51:29;5.18;;;3.67;;
75689;SDS011;64303;53.118;9.044;2023-06-14T04:53:59;5.38;;;3.20;;
75689;SDS011;64303;53.118;9.044;2023-06-14T04:56:27;5.72;;;4.88;;
75689;SDS011;64303;53.118;9.044;2023-06-14T04:58:55;6.18;;;5.35;;
75689;SDS011;64303;53.118;9.044;2023-06-14T05:01:22;5.65;;;3.83;;
75689;SDS011;64303;53.118;9.044;2023-06-14T05:03:49;6.43;;;3.65;;
75689;SDS011;64303;53.118;9.044;2023-06-14T05:06:17;5.60;;;4.47;;
75689;SDS011;64303;53.118;9.044;2023-06-14T05:08:45;6.20;;;4.50;;
75689;SDS011;64303;53.118;9.044;2023-06-14T05:11:12;6.90;;;3.40;;
75689;SDS011;64303;53.118;9.044;2023-06-14T05:13:39;5.47;;;3.60;;
75689;SDS011;64303;53.118;9.044;2023-06-14T05:16:06;4.93;;;3.95;;
75689;SDS011;64303;53.118;9.044;2023-06-14T05:18:33;6.97;;;3.80;;
75689;SDS011;64303;53.118;9.044;2023-06-14T05:21:00;6.13;;;3.22;;
75689;SDS011;64303;53.118;9.044;2023-06-14T05:23:27;5.05;;;4.32;;
75689;SDS011;64303;53.118;9.044;2023-06-14T05:25:55;6.85;;;2.95;;
75689;SDS011;64303;53.118;9.044;2023-06-14T05:28:22;8.80;;;3.45;;
75689;SDS011;64303;53.118;9.044;2023-06-14T05:30:49;6.75;;;3.25;;
75689;SDS011;64303;53.118;9.044;2023-06-14T05:33:16;7.65;;;3.33;;
75689;SDS011;64303;53.118;9.044;2023-06-14T05:35:43;5.35;;;4.85;;
75689;SDS011;64303;53.118;9.044;2023-06-14T05:38:09;8.50;;;3.20;;
75689;SDS011;64303;53.118;9.044;2023-06-14T05:40:36;5.53;;;4.32;;
75689;SDS011;64303;53.118;9.044;2023-06-14T05:43:04;6.55;;;3.47;;
75689;SDS011;64303;53.118;9.044;2023-06-14T05:45:31;5.72;;;3.97;;
75689;SDS011;64303;53.118;9.044;2023-06-14T05:47:57;6.28;;;3.95;;
75689;SDS011;64303;53.118;9.044;2023-06-14T05:50:24;4.53;;;3.15;;
75689;SDS011;64303;53.118;9.044;2023-06-14T05:52:51;6.13;;;3.20;;
75689;SDS011;64303;53.118;9.044;2023-06-14T05:55:18;6.05;;;4.45;;
75689;SDS011;64303;53.118;9.044;2023-06-14T05:57:45;6.20;;;2.92;;
75689;SDS011;64303;53.118;9.044;2023-06-14T06:00:15;6.07;;;2.53;;
75689;SDS011;64303;53.118;9.044;2023-06-14T06:02:43;4.82;;;3.28;;
75689;SDS011;64303;53.118;9.044;2023-06-14T06:05:10;6.25;;;3.05;;
75689;SDS011;64303;53.118;9.044;2023-06-14T06:07:38;3.78;;;3.35;;
75689;SDS011;64303;53.118;9.044;2023-06-14T06:10:06;6.18;;;3.42;;
75689;SDS011;64303;53.118;9.044;2023-06-14T06:14:59;7.07;;;3.40;;
75689;SDS011;64303;53.118;9.044;2023-06-14T06:17:27;4.60;;;2.55;;
75689;SDS011;64303;53.118;9.044;2023-06-14T06:19:54;4.10;;;2.92;;
75689;SDS011;64303;53.118;9.044;2023-06-14T06:22:21;6.68;;;2.63;;
75689;SDS011;64303;53.118;9.044;2023-06-14T06:24:47;4.05;;;2.33;;
75689;SDS011;64303;53.118;9.044;2023-06-14T06:27:14;4.45;;;3.25;;
75689;SDS011;64303;53.118;9.044;2023-06-14T06:29:41;3.25;;;2.13;;
75689;SDS011;64303;53.118;9.044;2023-06-14T06:32:08;3.53;;;2.28;;
75689;SDS011;64303;53.118;9.044;2023-06-14T06:34:36;4.22;;;2.90;;
75689;SDS011;64303;53.118;9.044;2023-06-14T06:37:03;6.30;;;2.17;;
75689;SDS011;64303;53.118;9.044;2023-06-14T06:39:30;4.95;;;2.70;;
75689;SDS011;64303;53.118;9.044;2023-06-14T06:41:56;4.38;;;2.72;;
75689;SDS011;64303;53.118;9.044;2023-06-14T06:44:31;4.65;;;2.33;;
75689;SDS011;64303;53.118;9.044;2023-06-14T06:49:25;4.22;;;3.00;;
75689;SDS011;64303;53.118;9.044;2023-06-14T06:52:00;3.45;;;2.28;;
75689;SDS011;64303;53.118;9.044;2023-06-14T06:54:28;4.80;;;2.15;;
75689;SDS011;64303;53.118;9.044;2023-06-14T06:56:54;5.50;;;2.72;;
75689;SDS011;64303;53.118;9.044;2023-06-14T06:59:21;3.47;;;2.78;;
75689;SDS011;64303;53.118;9.044;2023-06-14T07:01:48;2.97;;;1.30;;
75689;SDS011;64303;53.118;9.044;2023-06-14T07:04:15;4.20;;;2.40;;
75689;SDS011;64303;53.118;9.044;2023-06-14T07:06:41;4.03;;;2.05;;
75689;SDS011;64303;53.118;9.044;2023-06-14T07:11:39;7.25;;;3.28;;
75689;SDS011;64303;53.118;9.044;2023-06-14T07:14:06;3.30;;;2.30;;
75689;SDS011;64303;53.118;9.044;2023-06-14T07:16:33;3.42;;;1.83;;
75689;SDS011;64303;53.118;9.044;2023-06-14T07:19:00;3.00;;;1.60;;
75689;SDS011;64303;53.118;9.044;2023-06-14T07:21:27;3.30;;;2.65;;
75689;SDS011;64303;53.118;9.044;2023-06-14T07:23:54;3.97;;;2.38;;
75689;SDS011;64303;53.118;9.044;2023-06-14T07:26:22;3.72;;;1.75;;
75689;SDS011;64303;53.118;9.044;2023-06-14T07:28:50;5.32;;;1.88;;
75689;SDS011;64303;53.118;9.044;2023-06-14T07:31:17;4.82;;;2.10;;
75689;SDS011;64303;53.118;9.044;2023-06-14T07:33:44;3.78;;;2.20;;
75689;SDS011;64303;53.118;9.044;2023-06-14T07:36:11;4.60;;;2.22;;
75689;SDS011;64303;53.118;9.044;2023-06-14T07:38:38;4.30;;;2.05;;
75689;SDS011;64303;53.118;9.044;2023-06-14T07:41:05;3.30;;;2.13;;
75689;SDS011;64303;53.118;9.044;2023-06-14T07:43:34;4.00;;;2.45;;
75689;SDS011;64303;53.118;9.044;2023-06-14T07:46:00;4.47;;;1.50;;
75689;SDS011;64303;53.118;9.044;2023-06-14T07:48:27;2.67;;;1.55;;
75689;SDS011;64303;53.118;9.044;2023-06-14T07:50:54;2.97;;;1.95;;
75689;SDS011;64303;53.118;9.044;2023-06-14T07:53:21;6.10;;;2.03;;
75689;SDS011;64303;53.118;9.044;2023-06-14T07:55:48;8.85;;;2.63;;
75689;SDS011;64303;53.118;9.044;2023-06-14T07:58:16;8.15;;;2.15;;
75689;SDS011;64303;53.118;9.044;2023-06-14T08:00:44;7.07;;;2.65;;
75689;SDS011;64303;53.118;9.044;2023-06-14T08:03:11;3.78;;;2.15;;
75689;SDS011;64303;53.118;9.044;2023-06-14T08:05:38;4.93;;;2.03;;
75689;SDS011;64303;53.118;9.044;2023-06-14T08:08:05;4.38;;;2.50;;
75689;SDS011;64303;53.118;9.044;2023-06-14T08:10:32;4.35;;;1.95;;
75689;SDS011;64303;53.118;9.044;2023-06-14T08:12:58;7.60;;;2.17;;
75689;SDS011;64303;53.118;9.044;2023-06-14T08:15:25;3.13;;;1.85;;
75689;SDS011;64303;53.118;9.044;2023-06-14T08:17:53;2.80;;;1.58;;
75689;SDS011;64303;53.118;9.044;2023-06-14T08:20:20;4.00;;;1.88;;
75689;SDS011;64303;53.118;9.044;2023-06-14T08:22:46;5.75;;;1.65;;
75689;SDS011;64303;53.118;9.044;2023-06-14T08:25:13;3.33;;;1.60;;
75689;SDS011;64303;53.118;9.044;2023-06-14T08:27:40;3.05;;;2.35;;
75689;SDS011;64303;53.118;9.044;2023-06-14T08:30:07;4.03;;;1.85;;
75689;SDS011;64303;53.118;9.044;2023-06-14T08:32:35;3.35;;;1.67;;
75689;SDS011;64303;53.118;9.044;2023-06-14T08:35:03;3.92;;;2.60;;
75689;SDS011;64303;53.118;9.044;2023-06-14T08:37:31;4.65;;;2.38;;
75689;SDS011;64303;53.118;9.044;2023-06-14T08:42:25;3.30;;;1.95;;
75689;SDS011;64303;53.118;9.044;2023-06-14T08:44:52;3.05;;;1.50;;
75689;SDS011;64303;53.118;9.044;2023-06-14T08:47:18;3.60;;;2.10;;
75689;SDS011;64303;53.118;9.044;2023-06-14T08:52:15;3.03;;;1.98;;
75689;SDS011;64303;53.118;9.044;2023-06-14T08:54:44;5.15;;;2.33;;
75689;SDS011;64303;53.118;9.044;2023-06-14T08:57:14;3.83;;;1.77;;
75689;SDS011;64303;53.118;9.044;2023-06-14T08:59:45;4.22;;;1.83;;
75689;SDS011;64303;53.118;9.044;2023-06-14T09:02:14;4.85;;;1.73;;
75689;SDS011;64303;53.118;9.044;2023-06-14T09:04:43;3.33;;;1.65;;
75689;SDS011;64303;53.118;9.044;2023-06-14T09:07:10;4.15;;;2.83;;
75689;SDS011;64303;53.118;9.044;2023-06-14T09:09:39;3.45;;;1.85;;
75689;SDS011;64303;53.118;9.044;2023-06-14T09:12:07;2.97;;;1.88;;
75689;SDS011;64303;53.118;9.044;2023-06-14T09:14:36;5.35;;;2.47;;
75689;SDS011;64303;53.118;9.044;2023-06-14T09:17:05;4.32;;;2.40;;
75689;SDS011;64303;53.118;9.044;2023-06-14T09:19:32;2.92;;;1.67;;
75689;SDS011;64303;53.118;9.044;2023-06-14T09:22:00;2.75;;;1.50;;
75689;SDS011;64303;53.118;9.044;2023-06-14T09:24:27;4.25;;;1.55;;
75689;SDS011;64303;53.118;9.044;2023-06-14T09:26:56;4.15;;;2.65;;
75689;SDS011;64303;53.118;9.044;2023-06-14T09:29:23;3.83;;;2.40;;
75689;SDS011;64303;53.118;9.044;2023-06-14T09:31:52;2.92;;;1.52;;
75689;SDS011;64303;53.118;9.044;2023-06-14T09:34:18;3.90;;;2.33;;
75689;SDS011;64303;53.118;9.044;2023-06-14T09:36:48;3.92;;;1.80;;
75689;SDS011;64303;53.118;9.044;2023-06-14T09:39:16;4.07;;;2.45;;
75689;SDS011;64303;53.118;9.044;2023-06-14T09:41:44;4.43;;;1.55;;
75689;SDS011;64303;53.118;9.044;2023-06-14T09:44:12;4.57;;;2.47;;
75689;SDS011;64303;53.118;9.044;2023-06-14T09:46:39;4.43;;;2.40;;
75689;SDS011;64303;53.118;9.044;2023-06-14T09:49:05;2.80;;;1.42;;
75689;SDS011;64303;53.118;9.044;2023-06-14T09:51:32;3.40;;;1.85;;
75689;SDS011;64303;53.118;9.044;2023-06-14T09:54:00;4.90;;;1.90;;
75689;SDS011;64303;53.118;9.044;2023-06-14T09:56:30;7.03;;;2.30;;
75689;SDS011;64303;53.118;9.044;2023-06-14T09:58:59;4.78;;;2.55;;
75689;SDS011;64303;53.118;9.044;2023-06-14T10:01:29;2.67;;;1.58;;
75689;SDS011;64303;53.118;9.044;2023-06-14T10:03:59;3.55;;;2.35;;
75689;SDS011;64303;53.118;9.044;2023-06-14T10:06:29;5.55;;;2.08;;
75689;SDS011;64303;53.118;9.044;2023-06-14T10:08:56;4.18;;;1.70;;
75689;SDS011;64303;53.118;9.044;2023-06-14T10:11:25;6.55;;;2.33;;
75689;SDS011;64303;53.118;9.044;2023-06-14T10:16:20;6.55;;;1.80;;
75689;SDS011;64303;53.118;9.044;2023-06-14T10:18:51;3.38;;;1.58;;
75689;SDS011;64303;53.118;9.044;2023-06-14T10:21:22;4.20;;;1.83;;
75689;SDS011;64303;53.118;9.044;2023-06-14T10:23:52;5.60;;;2.15;;
75689;SDS011;64303;53.118;9.044;2023-06-14T10:26:19;4.90;;;1.27;;
75689;SDS011;64303;53.118;9.044;2023-06-14T10:28:56;5.82;;;1.50;;
75689;SDS011;64303;53.118;9.044;2023-06-14T10:31:35;3.90;;;1.45;;
75689;SDS011;64303;53.118;9.044;2023-06-14T10:34:07;4.70;;;2.10;;
75689;SDS011;64303;53.118;9.044;2023-06-14T10:36:34;3.72;;;2.08;;
75689;SDS011;64303;53.118;9.044;2023-06-14T10:39:01;3.50;;;1.75;;
75689;SDS011;64303;53.118;9.044;2023-06-14T10:41:31;4.38;;;1.90;;
75689;SDS011;64303;53.118;9.044;2023-06-14T10:47:06;3.45;;;2.08;;
75689;SDS011;64303;53.118;9.044;2023-06-14T10:49:40;6.10;;;3.00;;
75689;SDS011;64303;53.118;9.044;2023-06-14T10:52:09;4.25;;;1.92;;
75689;SDS011;64303;53.118;9.044;2023-06-14T10:55:02;3.72;;;1.42;;
75689;SDS011;64303;53.118;9.044;2023-06-14T10:57:31;3.70;;;1.90;;
75689;SDS011;64303;53.118;9.044;2023-06-14T10:59:59;7.28;;;1.60;;
75689;SDS011;64303;53.118;9.044;2023-06-14T11:05:39;4.90;;;1.83;;
75689;SDS011;64303;53.118;9.044;2023-06-14T11:08:15;4.35;;;1.85;;
75689;SDS011;64303;53.118;9.044;2023-06-14T11:10:49;4.47;;;1.92;;
75689;SDS011;64303;53.118;9.044;2023-06-14T11:13:16;4.22;;;2.25;;
75689;SDS011;64303;53.118;9.044;2023-06-14T11:15:44;4.65;;;1.95;;
75689;SDS011;64303;53.118;9.044;2023-06-14T11:18:13;4.93;;;1.98;;
75689;SDS011;64303;53.118;9.044;2023-06-14T11:20:42;5.43;;;1.83;;
75689;SDS011;64303;53.118;9.044;2023-06-14T11:23:12;3.28;;;1.58;;
75689;SDS011;64303;53.118;9.044;2023-06-14T11:25:40;5.35;;;1.80;;
75689;SDS011;64303;53.118;9.044;2023-06-14T11:28:06;3.38;;;1.83;;
75689;SDS011;64303;53.118;9.044;2023-06-14T11:30:33;4.70;;;1.55;;
75689;SDS011;64303;53.118;9.044;2023-06-14T11:33:00;3.45;;;1.45;;
75689;SDS011;64303;53.118;9.044;2023-06-14T11:35:27;5.93;;;1.63;;
75689;SDS011;64303;53.118;9.044;2023-06-14T11:37:56;4.47;;;2.17;;
75689;SDS011;64303;53.118;9.044;2023-06-14T11:40:23;4.18;;;2.65;;
75689;SDS011;64303;53.118;9.044;2023-06-14T11:42:54;5.78;;;2.38;;
75689;SDS011;64303;53.118;9.044;2023-06-14T11:45:25;5.28;;;2.05;;
75689;SDS011;64303;53.118;9.044;2023-06-14T11:47:53;4.18;;;1.90;;
75689;SDS011;64303;53.118;9.044;2023-06-14T11:50:21;4.97;;;2.25;;
75689;SDS011;64303;53.118;9.044;2023-06-14T11:52:51;4.90;;;1.95;;
75689;SDS011;64303;53.118;9.044;2023-06-14T11:55:20;3.65;;;2.55;;
75689;SDS011;64303;53.118;9.044;2023-06-14T11:57:46;4.00;;;2.50;;
75689;SDS011;64303;53.118;9.044;2023-06-14T12:00:13;7.18;;;2.80;;
75689;SDS011;64303;53.118;9.044;2023-06-14T12:02:42;4.15;;;2.08;;
75689;SDS011;64303;53.118;9.044;2023-06-14T12:05:09;5.22;;;2.08;;
75689;SDS011;64303;53.118;9.044;2023-06-14T12:07:37;5.13;;;2.15;;
75689;SDS011;64303;53.118;9.044;2023-06-14T12:10:05;5.38;;;1.27;;
75689;SDS011;64303;53.118;9.044;2023-06-14T12:12:37;3.55;;;1.70;;
75689;SDS011;64303;53.118;9.044;2023-06-14T12:15:05;4.88;;;2.17;;
75689;SDS011;64303;53.118;9.044;2023-06-14T12:17:33;4.50;;;2.80;;
75689;SDS011;64303;53.118;9.044;2023-06-14T12:20:04;5.47;;;2.28;;
75689;SDS011;64303;53.118;9.044;2023-06-14T12:22:34;9.90;;;2.35;;
75689;SDS011;64303;53.118;9.044;2023-06-14T12:25:00;4.53;;;2.42;;
75689;SDS011;64303;53.118;9.044;2023-06-14T12:27:28;3.90;;;2.58;;
75689;SDS011;64303;53.118;9.044;2023-06-14T12:30:00;3.72;;;2.75;;
75689;SDS011;64303;53.118;9.044;2023-06-14T12:32:28;9.20;;;2.78;;
75689;SDS011;64303;53.118;9.044;2023-06-14T12:34:55;9.80;;;2.50;;
75689;SDS011;64303;53.118;9.044;2023-06-14T12:37:22;8.95;;;2.38;;
75689;SDS011;64303;53.118;9.044;2023-06-14T12:39:48;5.82;;;2.85;;
75689;SDS011;64303;53.118;9.044;2023-06-14T12:42:16;5.53;;;2.17;;
75689;SDS011;64303;53.118;9.044;2023-06-14T12:47:11;4.53;;;1.83;;
75689;SDS011;64303;53.118;9.044;2023-06-14T12:49:39;5.43;;;1.27;;
75689;SDS011;64303;53.118;9.044;2023-06-14T12:52:07;5.50;;;1.80;;
75689;SDS011;64303;53.118;9.044;2023-06-14T12:54:34;5.47;;;1.67;;
75689;SDS011;64303;53.118;9.044;2023-06-14T12:57:00;4.35;;;1.80;;
75689;SDS011;64303;53.118;9.044;2023-06-14T12:59:28;3.65;;;1.58;;
75689;SDS011;64303;53.118;9.044;2023-06-14T13:01:59;5.40;;;2.15;;
75689;SDS011;64303;53.118;9.044;2023-06-14T13:04:37;3.70;;;1.70;;
75689;SDS011;64303;53.118;9.044;2023-06-14T13:07:04;3.63;;;1.98;;
75689;SDS011;64303;53.118;9.044;2023-06-14T13:09:31;6.97;;;2.33;;
75689;SDS011;64303;53.118;9.044;2023-06-14T13:11:58;3.53;;;1.88;;
75689;SDS011;64303;53.118;9.044;2023-06-14T13:14:24;5.22;;;1.83;;
75689;SDS011;64303;53.118;9.044;2023-06-14T13:16:51;4.68;;;2.40;;
75689;SDS011;64303;53.118;9.044;2023-06-14T13:19:18;4.00;;;1.75;;
75689;SDS011;64303;53.118;9.044;2023-06-14T13:21:46;5.07;;;2.20;;
75689;SDS011;64303;53.118;9.044;2023-06-14T13:24:13;3.55;;;1.98;;
75689;SDS011;64303;53.118;9.044;2023-06-14T13:26:40;4.93;;;3.05;;
75689;SDS011;64303;53.118;9.044;2023-06-14T13:29:07;4.13;;;2.55;;
75689;SDS011;64303;53.118;9.044;2023-06-14T13:31:34;4.65;;;2.45;;
75689;SDS011;64303;53.118;9.044;2023-06-14T13:34:01;3.63;;;2.00;;
75689;SDS011;64303;53.118;9.044;2023-06-14T13:36:28;4.85;;;2.38;;
75689;SDS011;64303;53.118;9.044;2023-06-14T13:38:56;5.80;;;2.13;;
75689;SDS011;64303;53.118;9.044;2023-06-14T13:41:25;4.95;;;2.00;;
75689;SDS011;64303;53.118;9.044;2023-06-14T13:43:56;3.65;;;2.42;;
75689;SDS011;64303;53.118;9.044;2023-06-14T13:46:24;6.90;;;1.88;;
75689;SDS011;64303;53.118;9.044;2023-06-14T13:48:50;3.35;;;1.55;;
75689;SDS011;64303;53.118;9.044;2023-06-14T13:51:17;3.47;;;1.73;;
75689;SDS011;64303;53.118;9.044;2023-06-14T13:53:46;4.10;;;1.58;;
75689;SDS011;64303;53.118;9.044;2023-06-14T13:56:14;4.18;;;2.17;;
75689;SDS011;64303;53.118;9.044;2023-06-14T13:58:41;6.32;;;3.42;;
75689;SDS011;64303;53.118;9.044;2023-06-14T14:01:08;4.43;;;1.95;;
75689;SDS011;64303;53.118;9.044;2023-06-14T14:03:35;6.30;;;2.25;;
75689;SDS011;64303;53.118;9.044;2023-06-14T14:06:02;4.22;;;2.30;;
75689;SDS011;64303;53.118;9.044;2023-06-14T14:08:31;3.30;;;2.00;;
75689;SDS011;64303;53.118;9.044;2023-06-14T14:10:57;4.05;;;1.27;;
75689;SDS011;64303;53.118;9.044;2023-06-14T14:13:26;4.18;;;1.92;;
75689;SDS011;64303;53.118;9.044;2023-06-14T14:15:53;5.28;;;2.28;;
75689;SDS011;64303;53.118;9.044;2023-06-14T14:18:20;3.95;;;1.77;;
75689;SDS011;64303;53.118;9.044;2023-06-14T14:20:47;4.80;;;1.90;;
75689;SDS011;64303;53.118;9.044;2023-06-14T14:23:13;5.72;;;2.97;;
75689;SDS011;64303;53.118;9.044;2023-06-14T14:25:40;5.18;;;1.98;;
75689;SDS011;64303;53.118;9.044;2023-06-14T14:28:07;6.07;;;2.28;;
75689;SDS011;64303;53.118;9.044;2023-06-14T14:30:35;6.47;;;2.88;;
75689;SDS011;64303;53.118;9.044;2023-06-14T14:33:05;9.63;;;2.50;;
75689;SDS011;64303;53.118;9.044;2023-06-14T14:37:58;5.90;;;2.30;;
75689;SDS011;64303;53.118;9.044;2023-06-14T14:40:25;9.05;;;2.13;;
75689;SDS011;64303;53.118;9.044;2023-06-14T14:42:52;4.25;;;1.88;;
75689;SDS011;64303;53.118;9.044;2023-06-14T14:45:18;6.57;;;1.75;;
75689;SDS011;64303;53.118;9.044;2023-06-14T14:47:46;3.58;;;2.78;;
75689;SDS011;64303;53.118;9.044;2023-06-14T14:50:13;4.60;;;3.38;;
75689;SDS011;64303;53.118;9.044;2023-06-14T14:52:40;4.43;;;2.53;;
75689;SDS011;64303;53.118;9.044;2023-06-14T14:55:07;3.97;;;2.33;;
75689;SDS011;64303;53.118;9.044;2023-06-14T14:57:34;5.38;;;2.90;;
75689;SDS011;64303;53.118;9.044;2023-06-14T15:00:02;4.78;;;1.95;;
75689;SDS011;64303;53.118;9.044;2023-06-14T15:02:29;5.57;;;2.47;;
75689;SDS011;64303;53.118;9.044;2023-06-14T15:04:57;4.68;;;1.85;;
75689;SDS011;64303;53.118;9.044;2023-06-14T15:07:26;4.18;;;2.25;;
75689;SDS011;64303;53.118;9.044;2023-06-14T15:09:53;6.00;;;2.63;;
75689;SDS011;64303;53.118;9.044;2023-06-14T15:12:19;3.53;;;2.28;;
75689;SDS011;64303;53.118;9.044;2023-06-14T15:14:49;6.30;;;2.03;;
75689;SDS011;64303;53.118;9.044;2023-06-14T15:17:16;5.50;;;2.28;;
75689;SDS011;64303;53.118;9.044;2023-06-14T15:19:43;7.28;;;2.05;;
75689;SDS011;64303;53.118;9.044;2023-06-14T15:22:11;5.05;;;2.22;;
75689;SDS011;64303;53.118;9.044;2023-06-14T15:24:38;6.63;;;2.03;;
75689;SDS011;64303;53.118;9.044;2023-06-14T15:27:05;4.57;;;1.98;;
75689;SDS011;64303;53.118;9.044;2023-06-14T15:29:32;4.78;;;2.28;;
75689;SDS011;64303;53.118;9.044;2023-06-14T15:32:00;4.60;;;2.08;;